createdAt,value
2019-03-03T00:01:30.724Z,73.77
2019-03-03T00:03:38.420Z,77.53
2019-03-03T00:05:46.130Z,76.97
2019-03-03T00:07:53.992Z,78.70
2019-03-03T00:10:01.775Z,82.70
2019-03-03T00:12:09.659Z,74.70
2019-03-03T00:14:17.175Z,72.73
2019-03-03T00:16:24.929Z,70.17
2019-03-03T00:18:32.618Z,74.37
2019-03-03T00:20:40.423Z,71.47
2019-03-03T00:22:48.238Z,67.07
2019-03-03T00:24:56.042Z,71.63
2019-03-03T00:27:03.702Z,66.83
2019-03-03T00:29:11.444Z,70.87
2019-03-03T00:31:31.509Z,77.03
2019-03-03T00:33:39.294Z,70.80
2019-03-03T00:35:47.045Z,70.43
2019-03-03T00:38:05.785Z,63.83
2019-03-03T00:40:26.703Z,66.03
2019-03-03T00:43:05.014Z,70.17
2019-03-03T00:45:30.672Z,68.07
2019-03-03T00:48:04.290Z,73.53
2019-03-03T00:50:21.405Z,67.60
2019-03-03T00:52:45.583Z,68.23
2019-03-03T00:55:08.645Z,69.03
2019-03-03T00:57:34.016Z,62.07
2019-03-03T01:00:18.665Z,69.57
2019-03-03T01:02:35.296Z,69.13
2019-03-03T01:04:59.995Z,67.13
2019-03-03T01:07:29.661Z,63.43
2019-03-03T01:09:56.163Z,68.97
2019-03-03T01:12:14.090Z,70.67
2019-03-03T01:14:46.566Z,75.20
2019-03-03T01:17:16.000Z,72.70
2019-03-03T01:19:30.252Z,69.27
2019-03-03T01:21:55.461Z,71.37
2019-03-03T01:24:17.802Z,73.57
2019-03-03T01:26:25.370Z,69.03
2019-03-03T01:28:33.150Z,75.93
2019-03-03T01:30:41.026Z,75.53
2019-03-03T01:32:49.211Z,74.67
2019-03-03T01:34:56.942Z,77.93
2019-03-03T01:37:04.810Z,84.10
2019-03-03T01:39:12.985Z,71.70
2019-03-03T01:41:20.659Z,71.60
2019-03-03T01:43:28.462Z,73.33
2019-03-03T01:45:36.165Z,73.20
2019-03-03T01:47:44.110Z,81.07
2019-03-03T01:49:51.832Z,73.73
2019-03-03T01:51:59.446Z,74.80
2019-03-03T01:54:07.136Z,75.83
2019-03-03T01:56:14.846Z,66.07
2019-03-03T01:58:22.697Z,76.77
2019-03-03T02:00:30.408Z,75.47
2019-03-03T02:02:39.429Z,72.30
2019-03-03T02:04:47.102Z,77.40
2019-03-03T02:06:54.712Z,79.20
2019-03-03T02:09:02.225Z,78.80
2019-03-03T02:11:10.104Z,74.43
2019-03-03T02:13:17.798Z,77.73
2019-03-03T02:15:25.693Z,74.60
2019-03-03T02:17:33.475Z,73.30
2019-03-03T02:19:41.194Z,78.63
2019-03-03T02:21:49.081Z,71.73
2019-03-03T02:23:56.822Z,77.80
2019-03-03T02:26:04.458Z,75.97
2019-03-03T02:28:12.393Z,77.00
2019-03-03T02:30:21.697Z,81.20
2019-03-03T02:32:29.629Z,77.60
2019-03-03T02:34:37.461Z,83.17
2019-03-03T02:36:45.256Z,79.13
2019-03-03T02:38:53.004Z,86.93
2019-03-03T02:41:00.622Z,76.23
2019-03-03T02:43:08.340Z,70.00
2019-03-03T02:45:16.889Z,75.63
2019-03-03T02:47:24.689Z,81.60
2019-03-03T02:49:32.573Z,73.97
2019-03-03T02:51:40.373Z,79.63
2019-03-03T02:53:48.117Z,73.77
2019-03-03T02:55:56.001Z,69.10
2019-03-03T02:58:03.612Z,79.07
2019-03-03T03:00:19.576Z,72.90
2019-03-03T03:02:45.226Z,79.13
2019-03-03T03:04:52.971Z,68.73
2019-03-03T03:07:25.705Z,74.00
2019-03-03T03:09:40.636Z,68.73
2019-03-03T03:11:59.063Z,78.00
2019-03-03T03:14:25.622Z,75.50
2019-03-03T03:16:45.604Z,74.63
2019-03-03T03:19:17.818Z,72.30
2019-03-03T03:21:38.882Z,82.60
2019-03-03T03:24:17.426Z,83.60
2019-03-03T03:26:59.246Z,77.40
2019-03-03T03:29:44.238Z,69.63
2019-03-03T03:32:13.529Z,81.10
2019-03-03T03:34:46.146Z,89.17
2019-03-03T03:37:10.918Z,85.87
2019-03-03T03:39:46.507Z,83.50
2019-03-03T03:42:09.513Z,80.10
2019-03-03T03:44:45.042Z,76.93
2019-03-03T03:47:23.872Z,82.20
2019-03-03T03:49:53.408Z,77.03
2019-03-03T03:52:18.484Z,78.83
2019-03-03T03:54:45.175Z,77.83
2019-03-03T03:57:23.487Z,81.47
2019-03-03T03:59:38.667Z,86.37
2019-03-03T04:02:08.213Z,82.07
2019-03-03T04:04:31.252Z,85.90
2019-03-03T04:06:50.682Z,75.23
2019-03-03T04:09:15.847Z,84.90
2019-03-03T04:11:45.516Z,79.37
2019-03-03T04:14:10.880Z,78.80
2019-03-03T04:16:46.573Z,87.87
2019-03-03T04:19:01.695Z,77.17
2019-03-03T04:21:28.282Z,79.67
2019-03-03T04:23:53.987Z,78.17
2019-03-03T04:26:18.626Z,84.67
2019-03-03T04:28:45.793Z,81.17
2019-03-03T04:31:02.198Z,82.33
2019-03-03T04:33:31.389Z,83.23
2019-03-03T04:35:58.779Z,82.30
2019-03-03T04:38:25.243Z,87.70
2019-03-03T04:40:48.701Z,88.50
2019-03-03T04:43:01.727Z,86.03
2019-03-03T04:45:17.231Z,87.90
2019-03-03T04:47:39.916Z,81.07
2019-03-03T04:50:12.509Z,86.07
2019-03-03T04:52:43.914Z,82.80
2019-03-03T04:55:09.241Z,89.20
2019-03-03T04:57:35.698Z,94.43
2019-03-03T05:00:05.175Z,85.10
2019-03-03T05:02:37.705Z,93.27
2019-03-03T05:05:02.438Z,84.40
2019-03-03T05:07:27.836Z,89.77
2019-03-03T05:10:06.283Z,102.83
2019-03-03T05:12:43.610Z,86.13
2019-03-03T05:14:52.312Z,96.13
2019-03-03T05:17:05.985Z,91.40
2019-03-03T05:19:32.467Z,88.23
2019-03-03T05:21:40.209Z,82.17
2019-03-03T05:23:48.120Z,85.00
2019-03-03T05:25:55.925Z,100.00
2019-03-03T05:28:03.674Z,96.27
2019-03-03T05:30:11.839Z,92.17
2019-03-03T05:32:19.388Z,96.00
2019-03-03T05:34:27.059Z,97.73
2019-03-03T05:36:34.790Z,100.10
2019-03-03T05:38:42.387Z,103.57
2019-03-03T05:40:50.008Z,95.47
2019-03-03T05:42:57.485Z,99.43
2019-03-03T05:45:05.350Z,99.07
2019-03-03T05:47:13.039Z,96.47
2019-03-03T05:49:20.812Z,99.73
2019-03-03T05:51:28.472Z,93.30
2019-03-03T05:53:36.256Z,94.33
2019-03-03T05:55:43.917Z,99.20
2019-03-03T05:57:51.574Z,112.90
2019-03-03T05:59:59.307Z,104.33
2019-03-03T06:02:07.088Z,102.07
2019-03-03T06:04:14.950Z,103.47
2019-03-03T06:06:22.628Z,97.23
2019-03-03T06:08:30.494Z,96.57
2019-03-03T06:10:38.051Z,95.40
2019-03-03T06:12:45.713Z,102.93
2019-03-03T06:14:53.451Z,96.07
2019-03-03T06:17:01.437Z,96.60
2019-03-03T06:19:08.976Z,87.57
2019-03-03T06:21:16.781Z,96.47
2019-03-03T06:23:24.556Z,93.93
2019-03-03T06:25:32.327Z,97.30
2019-03-03T06:27:39.934Z,99.77
2019-03-03T06:29:47.634Z,93.87
2019-03-03T06:31:55.570Z,94.63
2019-03-03T06:34:03.178Z,91.43
2019-03-03T06:36:10.850Z,93.43
2019-03-03T06:38:18.756Z,105.97
2019-03-03T06:40:26.484Z,86.63
2019-03-03T06:42:34.203Z,97.57
2019-03-03T06:44:41.860Z,86.27
2019-03-03T06:46:49.531Z,89.50
2019-03-03T06:48:57.310Z,96.17
2019-03-03T06:51:05.091Z,97.07
2019-03-03T06:53:12.839Z,82.80
2019-03-03T06:55:20.520Z,90.33
2019-03-03T06:57:28.200Z,92.43
2019-03-03T06:59:35.775Z,93.40
2019-03-03T07:01:43.501Z,95.70
2019-03-03T07:03:51.319Z,86.63
2019-03-03T07:05:59.032Z,93.17
2019-03-03T07:08:07.202Z,101.40
2019-03-03T07:10:16.007Z,99.60
2019-03-03T07:12:23.707Z,102.37
2019-03-03T07:14:31.421Z,91.80
2019-03-03T07:16:39.172Z,103.23
2019-03-03T07:18:46.901Z,98.50
2019-03-03T07:20:54.527Z,88.93
2019-03-03T07:23:02.448Z,91.23
2019-03-03T07:25:12.370Z,91.40
2019-03-03T07:27:20.102Z,103.10
2019-03-03T07:29:27.979Z,94.77
2019-03-03T07:31:35.822Z,91.20
2019-03-03T07:33:46.976Z,91.67
2019-03-03T07:35:54.665Z,90.70
2019-03-03T07:38:02.306Z,95.43
2019-03-03T07:40:10.212Z,89.70
2019-03-03T07:42:18.114Z,102.13
2019-03-03T07:44:25.740Z,93.80
2019-03-03T07:46:33.718Z,89.70
2019-03-03T07:48:41.422Z,97.70
2019-03-03T07:50:49.141Z,90.73
2019-03-03T07:52:56.934Z,90.43
2019-03-03T07:55:05.211Z,91.47
2019-03-03T07:57:13.140Z,87.93
2019-03-03T07:59:20.998Z,89.37
2019-03-03T08:01:28.761Z,91.07
2019-03-03T08:03:36.692Z,96.00
2019-03-03T08:05:44.684Z,88.00
2019-03-03T08:07:52.510Z,93.07
2019-03-03T08:10:00.257Z,85.70
2019-03-03T08:12:08.133Z,86.10
2019-03-03T08:14:15.909Z,88.07
2019-03-03T08:16:23.718Z,84.87
2019-03-03T08:18:31.538Z,86.47
2019-03-03T08:20:39.144Z,84.60
2019-03-03T08:22:46.944Z,89.77
2019-03-03T08:24:54.717Z,76.20
2019-03-03T08:27:02.447Z,95.03
2019-03-03T08:29:10.124Z,77.10
2019-03-03T08:31:17.746Z,80.67
2019-03-03T08:33:25.379Z,86.03
2019-03-03T08:35:33.407Z,88.60
2019-03-03T08:37:41.587Z,85.33
2019-03-03T08:39:49.359Z,79.20
2019-03-03T08:42:03.332Z,81.40
2019-03-03T08:44:15.044Z,84.17
2019-03-03T08:46:50.469Z,82.43
2019-03-03T08:49:15.583Z,75.53
2019-03-03T08:51:45.035Z,78.43
2019-03-03T08:54:02.219Z,76.67
2019-03-03T08:56:26.346Z,78.10
2019-03-03T08:59:08.860Z,75.47
2019-03-03T09:01:44.512Z,85.93
2019-03-03T09:04:09.556Z,78.73
2019-03-03T09:06:39.327Z,77.37
2019-03-03T09:09:11.981Z,75.97
2019-03-03T09:11:28.072Z,73.93
2019-03-03T09:13:48.165Z,72.83
2019-03-03T09:16:12.182Z,80.80
2019-03-03T09:18:37.391Z,78.53
2019-03-03T09:21:14.932Z,73.57
2019-03-03T09:23:40.555Z,76.63
2019-03-03T09:26:16.075Z,68.70
2019-03-03T09:28:41.107Z,74.90
2019-03-03T09:31:26.064Z,78.00
2019-03-03T09:33:52.766Z,75.20
2019-03-03T09:36:16.963Z,73.10
2019-03-03T09:38:40.869Z,69.43
2019-03-03T09:41:10.598Z,72.77
2019-03-03T09:43:36.047Z,102.03
2019-03-03T09:46:08.973Z,104.10
2019-03-03T09:48:41.712Z,64.73
2019-03-03T09:51:05.301Z,68.43
2019-03-03T09:53:31.789Z,69.87
2019-03-03T09:55:57.539Z,61.53
2019-03-03T09:58:24.502Z,61.53
2019-03-03T10:00:54.334Z,66.70
2019-03-03T10:03:15.881Z,61.23
2019-03-03T10:05:48.532Z,56.30
2019-03-03T10:08:10.654Z,64.40
2019-03-03T10:10:52.625Z,60.93
2019-03-03T10:13:22.581Z,53.67
2019-03-03T10:15:37.972Z,56.10
2019-03-03T10:18:03.244Z,60.60
2019-03-03T10:20:39.634Z,59.10
2019-03-03T10:22:58.560Z,63.57
2019-03-03T10:25:28.101Z,56.20
2019-03-03T10:27:54.635Z,57.10
2019-03-03T10:30:19.756Z,61.20
2019-03-03T10:32:46.263Z,48.63
2019-03-03T10:35:21.625Z,59.07
2019-03-03T10:37:51.355Z,61.00
2019-03-03T10:40:24.253Z,57.80
2019-03-03T10:43:02.844Z,56.10
2019-03-03T10:45:40.319Z,60.03
2019-03-03T10:48:07.002Z,56.53
2019-03-03T10:50:38.290Z,62.23
2019-03-03T10:53:11.006Z,65.50
2019-03-03T10:55:36.685Z,109.10
2019-03-03T10:58:06.496Z,89.20
2019-03-03T11:00:37.456Z,79.13
2019-03-03T11:03:07.234Z,68.07
2019-03-03T11:05:33.554Z,109.37
2019-03-03T11:08:12.461Z,89.07
2019-03-03T11:10:28.578Z,88.70
2019-03-03T11:13:05.121Z,123.47
2019-03-03T11:15:35.799Z,92.30
2019-03-03T11:18:14.523Z,118.30
2019-03-03T11:20:47.360Z,71.43
2019-03-03T11:23:19.931Z,55.63
2019-03-03T11:25:49.529Z,68.87
2019-03-03T11:28:23.387Z,89.70
2019-03-03T11:30:37.387Z,61.47
2019-03-03T11:33:21.506Z,59.13
2019-03-03T11:35:46.017Z,58.60
2019-03-03T11:38:15.372Z,68.47
2019-03-03T11:40:35.075Z,67.90
2019-03-03T11:42:54.135Z,60.03
2019-03-03T11:45:32.804Z,55.90
2019-03-03T11:48:03.826Z,54.17
2019-03-03T11:50:22.023Z,49.57
2019-03-03T11:52:57.625Z,53.60
2019-03-03T11:55:13.601Z,56.27
2019-03-03T11:57:30.911Z,52.37
2019-03-03T11:59:46.223Z,53.10
2019-03-03T12:02:12.630Z,58.83
2019-03-03T12:04:48.610Z,56.00
2019-03-03T12:07:18.153Z,227.33
2019-03-03T12:10:00.308Z,61.63
2019-03-03T12:12:18.061Z,68.33
2019-03-03T12:14:42.469Z,67.70
2019-03-03T12:17:03.152Z,62.87
2019-03-03T12:19:23.350Z,55.53
2019-03-03T12:21:55.629Z,59.97
2019-03-03T12:24:21.980Z,62.43
2019-03-03T12:26:54.768Z,63.57
2019-03-03T12:29:20.158Z,57.87
2019-03-03T12:31:46.758Z,54.63
2019-03-03T12:34:28.518Z,59.03
2019-03-03T12:37:00.934Z,59.10
2019-03-03T12:39:31.795Z,57.73
2019-03-03T12:42:03.765Z,52.73
2019-03-03T12:44:26.316Z,60.63
2019-03-03T12:47:05.205Z,58.30
2019-03-03T12:49:35.143Z,62.67
2019-03-03T12:52:00.785Z,58.70
2019-03-03T12:54:27.590Z,51.67
2019-03-03T12:56:48.179Z,56.90
2019-03-03T12:59:14.075Z,59.10
2019-03-03T13:01:56.907Z,51.57
2019-03-03T13:04:29.183Z,67.97
2019-03-03T13:07:02.439Z,88.10
2019-03-03T13:09:35.828Z,79.67
2019-03-03T13:12:03.027Z,80.27
2019-03-03T13:14:32.872Z,64.20
2019-03-03T13:17:11.788Z,62.80
2019-03-03T13:19:38.593Z,59.03
2019-03-03T13:22:05.725Z,63.53
2019-03-03T13:24:30.834Z,66.73
2019-03-03T13:26:46.303Z,56.20
2019-03-03T13:29:25.379Z,67.60
2019-03-03T13:31:44.145Z,54.97
2019-03-03T13:34:11.087Z,48.50
2019-03-03T13:36:34.724Z,56.97
2019-03-03T13:39:08.493Z,55.17
2019-03-03T13:41:38.647Z,60.67
2019-03-03T13:43:47.587Z,68.07
2019-03-03T13:45:56.238Z,90.77
2019-03-03T13:48:04.846Z,53.40
2019-03-03T13:50:16.248Z,51.13
2019-03-03T13:52:24.373Z,50.47
2019-03-03T13:54:33.141Z,51.93
2019-03-03T13:56:41.492Z,50.73
2019-03-03T13:58:49.878Z,52.73
2019-03-03T14:00:58.464Z,46.00
2019-03-03T14:03:07.022Z,51.50
2019-03-03T14:05:16.910Z,45.00
2019-03-03T14:07:24.994Z,55.47
2019-03-03T14:09:33.296Z,48.97
2019-03-03T14:11:41.508Z,52.23
2019-03-03T14:13:49.879Z,51.30
2019-03-03T14:15:58.003Z,46.40
2019-03-03T14:18:06.087Z,60.83
2019-03-03T14:20:20.707Z,86.30
2019-03-03T14:22:28.816Z,55.80
2019-03-03T14:24:36.860Z,45.77
2019-03-03T14:26:44.739Z,47.83
2019-03-03T14:28:52.694Z,43.97
2019-03-03T14:31:00.640Z,45.13
2019-03-03T14:33:08.676Z,41.57
2019-03-03T14:35:17.408Z,42.87
2019-03-03T14:37:25.147Z,46.60
2019-03-03T14:39:32.957Z,50.23
2019-03-03T14:41:41.204Z,44.27
2019-03-03T14:43:49.182Z,45.07
2019-03-03T14:45:58.040Z,50.00
2019-03-03T14:48:06.173Z,55.30
2019-03-03T14:50:16.289Z,54.97
2019-03-03T14:52:23.984Z,55.87
2019-03-03T14:54:31.903Z,53.87
2019-03-03T14:56:39.741Z,43.50
2019-03-03T14:58:47.513Z,44.00
2019-03-03T15:00:55.849Z,42.47
2019-03-03T15:03:06.181Z,46.57
2019-03-03T15:05:14.523Z,45.60
2019-03-03T15:07:22.561Z,50.30
2019-03-03T15:09:30.522Z,47.93
2019-03-03T15:11:38.362Z,43.90
2019-03-03T15:13:46.123Z,44.17
2019-03-03T15:15:54.210Z,37.17
2019-03-03T15:18:02.017Z,38.60
2019-03-03T15:20:10.287Z,42.30
2019-03-03T15:22:18.066Z,36.57
2019-03-03T15:24:25.977Z,38.90
2019-03-03T15:26:34.059Z,37.37
2019-03-03T15:28:42.287Z,38.47
2019-03-03T15:30:50.312Z,33.87
2019-03-03T15:32:58.273Z,34.07
2019-03-03T15:35:06.354Z,38.27
2019-03-03T15:37:17.877Z,39.43
2019-03-03T15:39:26.199Z,36.57
2019-03-03T15:41:34.000Z,33.10
2019-03-03T15:43:42.122Z,38.23
2019-03-03T15:45:49.777Z,32.57
2019-03-03T15:47:57.865Z,32.27
2019-03-03T15:50:06.114Z,33.00
2019-03-03T15:52:14.136Z,38.80
2019-03-03T15:54:22.070Z,30.90
2019-03-03T15:56:29.870Z,35.03
2019-03-03T15:58:38.040Z,37.13
2019-03-03T16:00:46.130Z,36.33
2019-03-03T16:02:54.298Z,38.80
2019-03-03T16:05:02.354Z,38.93
2019-03-03T16:07:10.186Z,33.70
2019-03-03T16:09:19.306Z,34.70
2019-03-03T16:11:27.244Z,29.83
2019-03-03T16:13:35.399Z,37.47
2019-03-03T16:15:43.471Z,39.20
2019-03-03T16:17:51.038Z,38.77
2019-03-03T16:19:58.805Z,58.80
2019-03-03T16:22:06.830Z,77.60
2019-03-03T16:24:15.629Z,116.50
2019-03-03T16:26:25.182Z,97.77
2019-03-03T16:28:33.324Z,59.40
2019-03-03T16:30:41.941Z,63.60
2019-03-03T16:32:49.970Z,62.97
2019-03-03T16:34:58.012Z,70.23
2019-03-03T16:37:05.792Z,63.80
2019-03-03T16:39:13.961Z,53.57
2019-03-03T16:41:21.888Z,69.47
2019-03-03T16:43:29.885Z,60.97
2019-03-03T16:45:37.894Z,46.77
2019-03-03T16:47:45.876Z,32.87
2019-03-03T16:49:54.127Z,40.37
2019-03-03T16:52:01.988Z,35.80
2019-03-03T16:54:10.215Z,37.27
2019-03-03T16:56:18.162Z,31.53
2019-03-03T16:58:26.560Z,32.73
2019-03-03T17:00:34.582Z,29.73
2019-03-03T17:02:42.274Z,29.30
2019-03-03T17:04:50.296Z,33.60
2019-03-03T17:06:57.962Z,35.43
2019-03-03T17:09:06.858Z,55.67
2019-03-03T17:11:15.999Z,72.73
2019-03-03T17:13:23.793Z,49.10
2019-03-03T17:15:32.148Z,41.60
2019-03-03T17:17:40.126Z,57.27
2019-03-03T17:19:48.271Z,50.17
2019-03-03T17:21:56.124Z,53.90
2019-03-03T17:24:03.983Z,50.03
2019-03-03T17:26:12.197Z,40.60
2019-03-03T17:28:20.276Z,57.53
2019-03-03T17:30:28.439Z,52.83
2019-03-03T17:32:36.494Z,47.93
2019-03-03T17:34:44.315Z,47.40
2019-03-03T17:36:52.545Z,36.70
2019-03-03T17:39:00.211Z,41.73
2019-03-03T17:41:08.051Z,40.67
2019-03-03T17:43:15.976Z,45.43
2019-03-03T17:45:24.795Z,32.20
2019-03-03T17:47:33.387Z,34.40
2019-03-03T17:49:41.600Z,30.60
2019-03-03T17:51:49.715Z,27.83
2019-03-03T17:53:57.999Z,44.07
2019-03-03T17:56:06.189Z,33.77
2019-03-03T17:58:14.470Z,33.43
2019-03-03T18:00:25.589Z,32.37
2019-03-03T18:02:34.089Z,36.37
2019-03-03T18:04:41.906Z,33.77
2019-03-03T18:06:50.484Z,33.40
2019-03-03T18:08:58.508Z,35.50
2019-03-03T18:11:06.780Z,31.53
2019-03-03T18:13:15.216Z,33.53
2019-03-03T18:15:24.270Z,39.10
2019-03-03T18:17:32.221Z,45.17
2019-03-03T18:19:40.327Z,46.23
2019-03-03T18:21:48.768Z,47.73
2019-03-03T18:23:57.231Z,39.43
2019-03-03T18:26:05.316Z,35.10
2019-03-03T18:28:13.890Z,33.83
2019-03-03T18:30:24.341Z,44.57
2019-03-03T18:32:32.715Z,70.33
2019-03-03T18:34:42.762Z,49.53
2019-03-03T18:36:52.067Z,40.80
2019-03-03T18:39:00.214Z,34.93
2019-03-03T18:41:08.645Z,33.33
2019-03-03T18:43:17.908Z,35.20
2019-03-03T18:45:27.474Z,39.47
2019-03-03T18:47:36.253Z,38.17
2019-03-03T18:49:45.308Z,36.57
2019-03-03T18:51:53.932Z,35.60
2019-03-03T18:54:02.404Z,36.77
2019-03-03T18:56:11.125Z,38.63
2019-03-03T18:58:19.102Z,34.50
2019-03-03T19:00:30.190Z,32.40
2019-03-03T19:02:39.991Z,32.63
2019-03-03T19:04:49.031Z,45.27
2019-03-03T19:06:59.404Z,43.07
2019-03-03T19:09:11.805Z,33.73
2019-03-03T19:11:20.182Z,38.83
2019-03-03T19:13:28.835Z,41.33
2019-03-03T19:15:39.423Z,35.53
2019-03-03T19:17:47.786Z,38.50
2019-03-03T19:19:55.382Z,30.87
2019-03-03T19:22:03.788Z,32.13
2019-03-03T19:24:12.725Z,36.53
2019-03-03T19:26:21.425Z,35.63
2019-03-03T19:28:30.215Z,38.97
2019-03-03T19:30:39.510Z,43.50
2019-03-03T19:32:50.330Z,43.17
2019-03-03T19:35:01.301Z,43.80
2019-03-03T19:37:11.907Z,36.50
2019-03-03T19:39:22.737Z,34.77
2019-03-03T19:41:32.693Z,34.07
2019-03-03T19:43:42.628Z,39.90
2019-03-03T19:45:50.995Z,32.70
2019-03-03T19:47:59.145Z,44.40
2019-03-03T19:50:08.484Z,33.40
2019-03-03T19:52:16.619Z,31.37
2019-03-03T19:54:24.350Z,31.63
2019-03-03T19:56:32.780Z,30.37
2019-03-03T19:58:40.645Z,35.20
2019-03-03T20:00:49.109Z,29.73
2019-03-03T20:02:57.361Z,36.37
2019-03-03T20:05:05.285Z,28.33
2019-03-03T20:07:13.122Z,35.27
2019-03-03T20:09:21.058Z,30.77
2019-03-03T20:11:28.952Z,37.50
2019-03-03T20:13:36.905Z,31.53
2019-03-03T20:15:44.647Z,29.13
2019-03-03T20:17:52.519Z,27.43
2019-03-03T20:20:00.314Z,31.53
2019-03-03T20:22:08.185Z,32.83
2019-03-03T20:24:16.022Z,29.33
2019-03-03T20:26:24.461Z,34.60
2019-03-03T20:28:32.532Z,28.33
2019-03-03T20:30:42.451Z,29.17
2019-03-03T20:32:51.001Z,33.03
2019-03-03T20:34:58.825Z,38.20
2019-03-03T20:37:07.173Z,51.37
2019-03-03T20:39:16.773Z,69.00
2019-03-03T20:41:25.296Z,58.27
2019-03-03T20:43:33.006Z,45.97
2019-03-03T20:45:40.910Z,49.80
2019-03-03T20:47:49.008Z,68.80
2019-03-03T20:49:57.080Z,61.33
2019-03-03T20:52:06.704Z,52.60
2019-03-03T20:54:14.653Z,31.97
2019-03-03T20:56:22.608Z,33.33
2019-03-03T20:58:30.806Z,26.17
2019-03-03T21:00:39.334Z,25.47
2019-03-03T21:02:47.263Z,29.53
2019-03-03T21:04:55.090Z,23.77
2019-03-03T21:07:03.239Z,28.90
2019-03-03T21:09:11.943Z,24.87
2019-03-03T21:11:19.865Z,22.87
2019-03-03T21:13:27.785Z,25.80
2019-03-03T21:15:35.728Z,25.17
2019-03-03T21:17:43.683Z,25.37
2019-03-03T21:19:51.833Z,23.73
2019-03-03T21:21:59.639Z,28.10
2019-03-03T21:24:07.372Z,29.43
2019-03-03T21:26:15.320Z,25.67
2019-03-03T21:28:23.216Z,27.03
2019-03-03T21:30:31.106Z,40.90
2019-03-03T21:32:39.356Z,26.27
2019-03-03T21:34:47.139Z,27.07
2019-03-03T21:36:55.112Z,26.37
2019-03-03T21:39:03.818Z,29.53
2019-03-03T21:41:12.116Z,29.17
2019-03-03T21:43:21.062Z,26.97
2019-03-03T21:45:29.425Z,27.27
2019-03-03T21:47:37.182Z,29.47
2019-03-03T21:49:45.106Z,27.70
2019-03-03T21:51:52.927Z,26.13
2019-03-03T21:54:00.766Z,27.70
2019-03-03T21:56:08.779Z,32.70
2019-03-03T21:58:16.698Z,34.27
2019-03-03T22:00:31.004Z,28.60
2019-03-03T22:02:38.862Z,29.17
2019-03-03T22:04:46.743Z,29.63
2019-03-03T22:06:54.579Z,24.13
2019-03-03T22:09:02.771Z,26.80
2019-03-03T22:11:10.685Z,29.43
2019-03-03T22:13:18.503Z,33.27
2019-03-03T22:15:26.402Z,37.43
2019-03-03T22:17:34.230Z,31.47
2019-03-03T22:19:42.495Z,30.70
2019-03-03T22:21:50.916Z,25.00
2019-03-03T22:23:58.717Z,26.83
2019-03-03T22:26:07.194Z,25.43
2019-03-03T22:28:14.962Z,30.37
2019-03-03T22:30:23.110Z,27.37
2019-03-03T22:32:30.896Z,26.80
2019-03-03T22:34:38.901Z,24.83
2019-03-03T22:36:47.209Z,26.73
2019-03-03T22:38:55.192Z,25.60
2019-03-03T22:41:02.967Z,30.27
2019-03-03T22:43:11.325Z,30.33
2019-03-03T22:45:19.851Z,29.10
2019-03-03T22:47:28.468Z,31.53
2019-03-03T22:49:36.239Z,28.13
2019-03-03T22:51:44.135Z,29.50
2019-03-03T22:53:51.891Z,30.73
2019-03-03T22:55:59.772Z,27.60
2019-03-03T22:58:07.539Z,28.57
2019-03-03T23:00:47.874Z,27.37
2019-03-03T23:02:56.234Z,28.90
2019-03-03T23:05:31.366Z,26.17
2019-03-03T23:08:14.029Z,33.30
2019-03-03T23:11:03.871Z,27.23
2019-03-03T23:13:56.949Z,27.73
2019-03-03T23:17:23.792Z,29.80
2019-03-03T23:20:29.395Z,29.63
2019-03-03T23:23:34.105Z,25.40
2019-03-03T23:25:55.145Z,26.13
2019-03-03T23:28:03.036Z,27.57
2019-03-03T23:30:10.833Z,26.53
2019-03-03T23:32:18.610Z,26.37
2019-03-03T23:34:26.818Z,29.30
2019-03-03T23:36:34.659Z,27.57
2019-03-03T23:38:42.420Z,29.47
2019-03-03T23:40:50.245Z,28.57
2019-03-03T23:42:57.949Z,28.60
2019-03-03T23:45:06.524Z,28.07
2019-03-03T23:47:14.180Z,22.10
2019-03-03T23:49:21.915Z,24.73
2019-03-03T23:51:29.611Z,23.97
2019-03-03T23:53:37.215Z,29.00
2019-03-03T23:55:44.904Z,26.53
2019-03-03T23:57:52.608Z,21.63
